Time;durP1;ratioP1;P1;durP2;ratioP2;P2;SDS_P1;SDS_P2;PMS_P1;PMS_P2;Temp;Humidity;BMP_temperature;BMP_pressure;BME280_temperature;BME280_humidity;BME280_pressure;Samples;Min_cycle;Max_cycle;Signal;HPM_P1;HPM_P2
2022/02/25 00:02:25;;;;;;;;;5.00;2.75;;;;;4.72;67.62;101462.44;4937437;28;45327;-65
2022/02/25 00:04:51;;;;;;;;;6.00;4.75;;;;;4.76;67.84;101464.19;4938337;28;45161;-73
2022/02/25 00:07:16;;;;;;;;;2.75;1.00;;;;;4.76;67.33;101470.28;4937889;28;45534;-73
2022/02/25 00:09:42;;;;;;;;;1.75;1.50;;;;;4.71;67.72;101464.22;4937799;28;45262;-70
2022/02/25 00:12:08;;;;;;;;;5.25;2.00;;;;;4.74;67.42;101474.63;4936539;28;45397;-74
2022/02/25 00:14:33;;;;;;;;;1.75;1.00;;;;;4.71;68.25;101472.03;4936371;28;45373;-70
2022/02/25 00:16:58;;;;;;;;;5.50;1.50;;;;;4.70;68.19;101478.09;4935651;28;46541;-68
2022/02/25 00:19:24;;;;;;;;;5.75;4.00;;;;;4.68;68.82;101479.84;4937036;28;45255;-68
2022/02/25 00:21:51;;;;;;;;;2.00;1.00;;;;;4.66;68.63;101478.97;4937972;28;45276;-70
2022/02/25 00:24:16;;;;;;;;;2.00;2.00;;;;;4.67;68.56;101481.56;4937081;28;45427;-74
2022/02/25 00:26:42;;;;;;;;;5.75;1.00;;;;;4.67;69.13;101481.56;4936516;28;45464;-73
2022/02/25 00:29:08;;;;;;;;;2.00;1.50;;;;;4.64;69.37;101480.72;4938087;28;45375;-75
2022/02/25 00:31:33;;;;;;;;;2.00;1.50;;;;;4.64;68.77;101486.78;4938160;28;45282;-73
2022/02/25 00:33:59;;;;;;;;;1.25;1.25;;;;;4.64;69.28;101491.16;4937799;28;45665;-69
2022/02/25 00:36:24;;;;;;;;;4.75;2.00;;;;;4.58;68.71;101485.94;4936505;28;46883;-71
2022/02/25 00:38:50;;;;;;;;;4.50;1.25;;;;;4.58;69.18;101492.00;4937243;28;45355;-63
2022/02/25 00:41:17;;;;;;;;;6.75;2.00;;;;;4.62;68.86;101500.69;4935983;28;45280;-71
2022/02/25 00:43:42;;;;;;;;;4.00;2.00;;;;;4.56;69.22;101490.28;4936292;28;45449;-74
2022/02/25 00:46:08;;;;;;;;;3.25;2.75;;;;;4.58;69.68;101502.44;4937463;28;45393;-70
2022/02/25 00:48:33;;;;;;;;;3.25;1.50;;;;;4.60;69.56;101505.06;4936434;28;45435;-72
2022/02/25 00:50:59;;;;;;;;;3.25;1.00;;;;;4.56;69.32;101509.38;4937559;28;45480;-73
2022/02/25 00:53:24;;;;;;;;;5.00;1.00;;;;;4.58;69.65;101506.78;4938051;28;45593;-68
2022/02/25 00:55:49;;;;;;;;;3.00;2.00;;;;;4.56;69.71;101506.78;4937328;28;45243;-69
2022/02/25 00:58:15;;;;;;;;;1.00;1.00;;;;;4.56;69.74;101525.00;4937358;28;45366;-71
2022/02/25 01:00:40;;;;;;;;;3.25;2.25;;;;;4.54;69.16;101521.53;4936037;28;45572;-75
2022/02/25 01:03:06;;;;;;;;;3.25;1.00;;;;;4.50;69.22;101512.88;4937381;28;45371;-72
2022/02/25 01:05:33;;;;;;;;;1.75;1.00;;;;;4.48;69.63;101519.81;4936637;28;46299;-72
2022/02/25 01:08:04;;;;;;;;;3.25;1.00;;;;;4.45;69.24;101522.44;4936661;28;45509;-61
2022/02/25 01:10:30;;;;;;;;;2.75;1.00;;;;;4.45;69.69;101516.31;4940561;28;45432;-72
2022/02/25 01:12:55;;;;;;;;;4.50;2.00;;;;;4.42;69.63;101525.03;4947742;28;45204;-69
2022/02/25 01:15:20;;;;;;;;;3.75;1.50;;;;;4.42;70.45;101524.16;4949032;28;45583;-69
2022/02/25 01:17:46;;;;;;;;;4.00;1.50;;;;;4.41;70.30;101530.22;4942613;28;45311;-71
2022/02/25 01:20:12;;;;;;;;;3.00;1.50;;;;;4.38;70.33;101528.50;4940654;28;45349;-64
2022/02/25 01:22:38;;;;;;;;;2.50;1.00;;;;;4.37;70.37;101534.56;4939025;28;45355;-72
2022/02/25 01:25:04;;;;;;;;;2.25;2.00;;;;;4.36;70.86;101533.69;4938905;28;48457;-72
2022/02/25 01:27:31;;;;;;;;;3.00;2.00;;;;;4.34;70.45;101535.44;4939901;28;45424;-61
2022/02/25 01:29:57;;;;;;;;;2.75;2.00;;;;;4.31;71.26;101530.22;4940291;28;45378;-73
2022/02/25 01:32:22;;;;;;;;;4.00;1.00;;;;;4.30;70.79;101538.91;4941169;28;45260;-61
2022/02/25 01:34:48;;;;;;;;;5.00;1.00;;;;;4.31;71.00;101539.78;4938743;28;46089;-71
2022/02/25 01:37:14;;;;;;;;;2.25;1.00;;;;;4.29;71.38;101541.50;4939659;28;45414;-74
2022/02/25 01:39:39;;;;;;;;;2.00;0.00;;;;;4.17;70.93;101517.16;4939861;28;45255;-69
2022/02/25 01:42:06;;;;;;;;;6.00;1.00;;;;;4.28;71.04;101534.56;4940032;28;45327;-65
2022/02/25 01:44:31;;;;;;;;;2.75;2.00;;;;;4.24;71.01;101539.78;4939436;28;45556;-60
2022/02/25 01:47:04;;;;;;;;;3.50;3.00;;;;;4.25;70.71;101543.22;4939955;28;45436;-57
2022/02/25 01:49:30;;;;;;;;;3.25;1.00;;;;;4.24;70.71;101555.41;4938515;28;45421;-57
2022/02/25 01:52:01;;;;;;;;;3.50;1.00;;;;;4.20;70.96;101543.22;4940520;28;45599;-73
2022/02/25 01:54:28;;;;;;;;;3.00;1.75;;;;;4.18;70.64;101538.88;4938615;28;47204;-65
2022/02/25 01:56:58;;;;;;;;;0.00;0.00;;;;;4.17;71.10;101540.59;4939510;28;45484;-72
2022/02/25 01:59:25;;;;;;;;;1.25;1.00;;;;;4.17;71.16;101543.19;4939291;28;45385;-71
2022/02/25 02:01:51;;;;;;;;;3.00;1.00;;;;;4.15;70.91;101544.09;4954655;28;45339;-69
2022/02/25 02:04:17;;;;;;;;;1.50;1.00;;;;;4.16;71.21;101545.81;4938140;28;45337;-70
2022/02/25 02:06:42;;;;;;;;;3.50;1.00;;;;;4.15;70.83;101544.09;4939462;28;45536;-73
2022/02/25 02:09:09;;;;;;;;;2.00;1.00;;;;;4.14;71.59;101542.34;4939586;28;45409;-68
2022/02/25 02:11:43;;;;;;;;;1.75;1.00;;;;;4.13;71.00;101546.66;4939362;28;45761;-70
2022/02/25 02:14:13;;;;;;;;;2.25;1.50;;;;;4.11;71.38;101542.34;4938155;28;46600;-71
2022/02/25 02:16:41;;;;;;;;;6.75;1.00;;;;;4.10;71.61;101544.06;4940075;28;45393;-67
2022/02/25 02:19:07;;;;;;;;;2.00;1.25;;;;;4.11;71.71;101543.19;4941463;28;45291;-65
2022/02/25 02:21:38;;;;;;;;;2.25;1.50;;;;;4.07;71.59;101537.13;4940974;28;45633;-71
2022/02/25 02:24:04;;;;;;;;;3.00;1.00;;;;;4.10;71.72;101541.44;4939209;28;45753;-71
2022/02/25 02:26:31;;;;;;;;;0.00;0.00;;;;;4.05;71.35;101532.75;4938966;28;45343;-66
2022/02/25 02:28:57;;;;;;;;;5.00;1.75;;;;;4.07;71.36;101542.34;4939241;28;45231;-69
2022/02/25 02:31:23;;;;;;;;;1.25;1.25;;;;;4.05;72.07;101538.84;4939365;28;45629;-71
2022/02/25 02:33:48;;;;;;;;;5.75;2.00;;;;;4.03;71.37;101529.28;4938823;28;46091;-72
2022/02/25 02:36:14;;;;;;;;;2.75;1.00;;;;;4.04;72.20;101542.31;4939306;28;45239;-68
2022/02/25 02:38:40;;;;;;;;;7.25;1.50;;;;;4.03;72.07;101537.97;4938385;28;45296;-71
2022/02/25 02:41:06;;;;;;;;;1.25;1.00;;;;;3.97;72.42;101530.16;4939406;28;45390;-72
2022/02/25 02:43:33;;;;;;;;;2.75;1.00;;;;;4.01;71.96;101542.31;4939006;28;46391;-73
2022/02/25 02:45:59;;;;;;;;;3.00;1.25;;;;;3.99;72.80;101537.97;4937405;28;45477;-72
2022/02/25 02:48:25;;;;;;;;;1.50;1.00;;;;;3.99;73.05;101543.16;4938691;28;45346;-72
2022/02/25 02:50:51;;;;;;;;;4.00;1.00;;;;;3.95;72.82;101537.94;4939300;28;45598;-73
2022/02/25 02:53:16;;;;;;;;;1.50;0.00;;;;;3.97;72.73;101540.56;4943425;28;46291;-73
2022/02/25 02:55:43;;;;;;;;;3.00;1.00;;;;;3.95;72.95;101540.56;4946587;28;45386;-71
2022/02/25 02:58:09;;;;;;;;;4.25;2.00;;;;;3.95;73.31;101537.94;4942948;28;45203;-72
2022/02/25 03:00:35;;;;;;;;;1.00;1.00;;;;;3.96;73.58;101531.03;4939408;28;45397;-70
2022/02/25 03:03:00;;;;;;;;;2.00;0.75;;;;;3.94;73.37;101530.16;4939910;28;45315;-72
2022/02/25 03:05:26;;;;;;;;;1.00;1.00;;;;;3.98;73.70;101528.41;4939131;28;45441;-68
2022/02/25 03:07:52;;;;;;;;;1.00;1.00;;;;;3.99;73.11;101537.97;4938589;28;45426;-70
2022/02/25 03:10:17;;;;;;;;;2.00;1.75;;;;;3.98;73.31;101534.50;4938703;28;45437;-63
2022/02/25 03:12:43;;;;;;;;;1.00;1.00;;;;;3.98;73.23;101531.00;4938131;28;46392;-72
2022/02/25 03:15:10;;;;;;;;;1.00;1.00;;;;;3.98;73.67;101533.63;4938430;28;45401;-71
2022/02/25 03:17:37;;;;;;;;;1.00;1.00;;;;;3.99;73.73;101537.97;4938679;28;45391;-71
2022/02/25 03:20:05;;;;;;;;;1.00;1.00;;;;;3.96;73.91;101533.63;4938802;28;45509;-69
2022/02/25 03:22:31;;;;;;;;;5.00;2.00;;;;;3.98;73.68;101542.31;4938315;28;45301;-72
2022/02/25 03:24:57;;;;;;;;;3.00;0.00;;;;;3.96;73.20;101541.44;4938075;28;45381;-74
2022/02/25 03:27:24;;;;;;;;;4.50;0.75;;;;;3.97;73.42;101544.91;4936853;28;45536;-72
2022/02/25 03:29:50;;;;;;;;;1.00;0.75;;;;;3.95;73.97;101545.75;4938463;28;45263;-73
2022/02/25 03:32:16;;;;;;;;;5.25;1.00;;;;;3.94;73.72;101548.38;4938353;28;45411;-70
2022/02/25 03:34:42;;;;;;;;;3.00;1.00;;;;;3.93;74.14;101544.03;4938167;28;45311;-73
2022/02/25 03:37:08;;;;;;;;;2.75;0.75;;;;;3.93;74.23;101550.09;4937038;28;45227;-72
2022/02/25 03:39:33;;;;;;;;;3.50;1.00;;;;;3.94;73.92;101554.44;4937257;28;45276;-67
2022/02/25 03:41:58;;;;;;;;;1.25;1.00;;;;;3.91;73.29;101561.38;4938324;28;46035;-64
2022/02/25 03:44:24;;;;;;;;;1.00;0.00;;;;;3.89;74.29;101544.88;4938271;28;45378;-61
2022/02/25 03:46:49;;;;;;;;;3.50;1.00;;;;;3.85;74.83;101550.94;4939212;28;45334;-59
2022/02/25 03:49:15;;;;;;;;;2.50;1.75;;;;;3.86;75.10;101556.16;4939448;28;45298;-58
2022/02/25 03:51:41;;;;;;;;;3.50;1.00;;;;;3.87;74.78;101567.44;4938038;28;45305;-58
2022/02/25 03:54:06;;;;;;;;;0.00;0.00;;;;;3.86;74.35;101563.09;4938083;28;45948;-68
2022/02/25 03:56:32;;;;;;;;;0.00;0.00;;;;;3.83;74.96;101561.34;4938299;28;45378;-68
2022/02/25 03:59:08;;;;;;;;;6.00;2.00;;;;;3.86;75.08;101565.69;5130674;27;45332;-64
2022/02/25 04:01:34;;;;;;;;;2.25;1.00;;;;;3.85;75.16;101564.81;5113520;27;45439;-66
2022/02/25 04:03:59;;;;;;;;;2.00;1.75;;;;;3.86;74.84;101574.38;5113332;27;45338;-66
2022/02/25 04:06:25;;;;;;;;;2.25;2.25;;;;;3.84;75.17;101568.28;5113683;27;45229;-65
2022/02/25 04:08:51;;;;;;;;;1.25;1.00;;;;;3.88;74.98;101579.59;5113007;27;45334;-66
2022/02/25 04:11:17;;;;;;;;;3.00;1.00;;;;;3.88;74.96;101580.44;5112012;27;45390;-66
2022/02/25 04:13:42;;;;;;;;;2.00;1.00;;;;;3.87;74.60;101580.47;5113528;27;45286;-65
2022/02/25 04:16:08;;;;;;;;;2.25;1.00;;;;;3.84;75.43;101580.44;5113464;27;45610;-65
2022/02/25 04:18:34;;;;;;;;;0.75;0.00;;;;;3.85;75.37;101587.41;5113171;27;45400;-64
2022/02/25 04:21:00;;;;;;;;;2.25;0.00;;;;;3.83;75.00;101584.78;5128978;27;45651;-65
2022/02/25 04:23:25;;;;;;;;;0.25;0.25;;;;;3.82;75.42;101588.22;5113027;27;45300;-66
2022/02/25 04:25:50;;;;;;;;;1.25;1.00;;;;;3.83;75.55;101584.78;5113269;27;45532;-65
2022/02/25 04:28:16;;;;;;;;;2.25;0.00;;;;;3.83;75.13;101584.78;5112779;27;45415;-64
2022/02/25 04:30:43;;;;;;;;;4.25;1.00;;;;;3.82;75.13;101587.38;5112910;27;45409;-64
2022/02/25 04:33:09;;;;;;;;;3.00;1.00;;;;;3.81;75.83;101591.69;5113137;27;45443;-65
2022/02/25 04:35:35;;;;;;;;;1.00;1.00;;;;;3.81;75.89;101591.69;5113302;27;45238;-66
2022/02/25 04:38:01;;;;;;;;;3.25;2.00;;;;;3.82;75.71;101597.78;5112681;27;46539;-65
2022/02/25 04:40:27;;;;;;;;;2.75;0.00;;;;;3.83;76.55;101600.38;5112826;27;45295;-65
2022/02/25 04:42:52;;;;;;;;;3.00;0.00;;;;;3.75;75.87;101589.97;5111342;27;45558;-65
2022/02/25 04:45:18;;;;;;;;;2.25;1.00;;;;;3.82;76.25;101616.88;5113153;27;45302;-64
2022/02/25 04:47:44;;;;;;;;;2.50;2.50;;;;;3.85;76.41;101621.22;5111399;27;46153;-64
2022/02/25 04:50:11;;;;;;;;;1.75;0.75;;;;;3.84;76.13;101622.09;5112674;27;45388;-64
2022/02/25 04:52:37;;;;;;;;;0.50;0.50;;;;;3.85;76.18;101618.63;5113166;27;45403;-66
2022/02/25 04:55:03;;;;;;;;;0.25;0.25;;;;;3.86;76.94;101622.97;5112698;27;45547;-64
2022/02/25 04:57:29;;;;;;;;;2.75;0.75;;;;;3.86;76.72;101617.75;5128186;27;47224;-64
2022/02/25 04:59:54;;;;;;;;;1.25;0.00;;;;;3.85;77.01;101614.28;5112403;27;45350;-65
2022/02/25 05:02:20;;;;;;;;;4.75;0.00;;;;;3.80;77.03;101611.66;5112437;27;45281;-65
2022/02/25 05:04:45;;;;;;;;;1.00;0.50;;;;;3.85;76.92;101623.84;5112630;27;45505;-66
2022/02/25 05:07:10;;;;;;;;;0.00;0.00;;;;;3.84;77.03;101622.94;5112215;27;45332;-63
2022/02/25 05:09:36;;;;;;;;;4.25;1.00;;;;;3.83;76.63;101618.59;5102277;27;45629;-63
2022/02/25 05:12:01;;;;;;;;;2.00;1.00;;;;;3.81;77.55;101625.53;5097483;27;45517;-64
2022/02/25 05:22:40;;;;;;;;;4.00;1.00;;;;;3.81;77.08;101646.34;5098639;27;45474;-65
2022/02/25 05:25:05;;;;;;;;;1.25;0.75;;;;;3.78;77.73;101639.41;5098408;27;45378;-66
2022/02/25 05:27:31;;;;;;;;;3.75;1.00;;;;;3.79;77.34;101642.88;5098037;27;46284;-65
2022/02/25 05:29:56;;;;;;;;;5.00;1.50;;;;;3.79;77.60;101643.75;5098390;27;45431;-65
2022/02/25 05:32:22;;;;;;;;;0.25;0.25;;;;;3.79;77.62;101648.97;5098396;27;45230;-66
2022/02/25 05:34:47;;;;;;;;;2.25;0.00;;;;;3.83;77.62;101649.84;5098452;27;45646;-65
2022/02/25 05:37:13;;;;;;;;;1.00;1.00;;;;;3.83;78.12;101655.03;5097993;27;45367;-65
2022/02/25 05:39:38;;;;;;;;;3.00;1.00;;;;;3.84;77.77;101651.56;5098335;27;45363;-66
2022/02/25 05:42:04;;;;;;;;;4.25;1.00;;;;;3.86;77.61;101652.44;5098163;27;45263;-65
2022/02/25 05:44:29;;;;;;;;;1.50;1.00;;;;;3.87;78.09;101653.34;5098241;27;45544;-65
2022/02/25 05:46:54;;;;;;;;;3.75;1.00;;;;;3.84;78.14;101650.72;5096826;27;47290;-64
2022/02/25 05:49:20;;;;;;;;;1.00;1.00;;;;;3.88;77.27;101655.94;5097864;27;45329;-64
2022/02/25 05:51:45;;;;;;;;;2.75;1.00;;;;;3.88;78.03;101658.53;5097850;27;45376;-65
2022/02/25 05:54:10;;;;;;;;;3.50;1.00;;;;;3.87;78.29;101659.41;5098269;27;45423;-67
2022/02/25 05:56:36;;;;;;;;;2.50;1.00;;;;;3.87;77.98;101666.34;5097483;27;45333;-64
2022/02/25 05:59:01;;;;;;;;;3.00;1.00;;;;;3.90;78.17;101679.38;5097239;27;45366;-65
2022/02/25 06:01:26;;;;;;;;;0.50;0.50;;;;;3.90;78.15;101674.19;5097754;27;45404;-65
2022/02/25 06:03:53;;;;;;;;;1.00;1.00;;;;;3.93;78.55;101675.06;5097849;27;45518;-66
2022/02/25 06:06:19;;;;;;;;;2.75;1.00;;;;;3.98;77.85;101682.00;5097589;27;45538;-64
2022/02/25 06:08:44;;;;;;;;;3.00;0.50;;;;;4.01;77.69;101689.84;5097468;27;45350;-66
2022/02/25 06:11:09;;;;;;;;;3.75;1.50;;;;;4.00;77.44;101688.97;5097805;27;45300;-65
2022/02/25 06:13:36;;;;;;;;;1.00;1.00;;;;;4.00;77.31;101682.88;5097692;27;45269;-65
2022/02/25 06:16:01;;;;;;;;;2.75;1.00;;;;;3.99;77.70;101684.63;5097257;27;45459;-66
2022/02/25 06:18:26;;;;;;;;;2.25;0.00;;;;;4.03;77.88;101693.31;5097490;27;45423;-65
2022/02/25 06:20:52;;;;;;;;;1.00;1.00;;;;;4.00;77.88;101680.28;5095247;27;45371;-65
2022/02/25 06:23:21;;;;;;;;;1.75;1.00;;;;;4.00;77.54;101685.50;5097547;27;45239;-65
2022/02/25 06:25:47;;;;;;;;;2.25;1.00;;;;;4.02;77.64;101689.88;5097054;27;46412;-65
2022/02/25 06:28:12;;;;;;;;;2.75;1.00;;;;;4.02;77.59;101699.38;5097378;27;45371;-70
2022/02/25 06:30:38;;;;;;;;;2.00;0.00;;;;;4.00;78.05;101706.31;5096929;27;45372;-70
2022/02/25 06:33:03;;;;;;;;;3.25;1.00;;;;;3.99;78.18;101710.69;5090687;27;45987;-70
2022/02/25 06:35:29;;;;;;;;;1.75;1.00;;;;;4.00;77.37;101716.72;5093892;27;48287;-69
2022/02/25 06:37:56;;;;;;;;;1.25;0.00;;;;;3.98;77.60;101710.66;5097138;27;45311;-68
2022/02/25 06:40:22;;;;;;;;;4.50;3.00;;;;;3.94;78.14;101708.03;5095967;27;45407;-69
2022/02/25 06:42:47;;;;;;;;;2.75;1.00;;;;;3.99;77.83;101722.81;5096091;27;45560;-71
2022/02/25 06:45:15;;;;;;;;;4.00;2.00;;;;;4.00;77.74;101716.72;5096949;27;46239;-68
2022/02/25 06:47:41;;;;;;;;;1.00;1.00;;;;;4.00;77.44;101716.72;5097014;27;45502;-69
2022/02/25 06:50:08;;;;;;;;;1.75;1.00;;;;;3.99;77.71;101731.50;5096834;27;45471;-68
2022/02/25 06:52:34;;;;;;;;;2.00;2.00;;;;;4.00;77.54;101727.16;5096837;27;45565;-71
2022/02/25 06:55:00;;;;;;;;;1.00;1.00;;;;;4.02;77.51;101730.63;5096392;27;45360;-68
2022/02/25 06:57:25;;;;;;;;;4.25;1.00;;;;;4.02;77.67;101738.44;5095401;27;45604;-68
2022/02/25 06:59:50;;;;;;;;;1.00;1.00;;;;;4.05;77.79;101738.47;5095910;27;45325;-68
2022/02/25 07:02:16;;;;;;;;;1.25;1.25;;;;;4.04;77.20;101732.41;5097151;27;45345;-66
2022/02/25 07:04:41;;;;;;;;;2.00;0.75;;;;;4.00;77.18;101714.13;5096635;27;46323;-67
2022/02/25 07:07:06;;;;;;;;;3.25;3.00;;;;;4.07;76.82;101735.03;5094839;27;45239;-72
2022/02/25 07:09:32;;;;;;;;;6.00;2.00;;;;;4.08;77.57;101731.56;5095755;27;45319;-69
2022/02/25 07:11:57;;;;;;;;;5.00;1.00;;;;;4.11;77.39;101735.03;5096674;27;45532;-68
2022/02/25 07:14:23;;;;;;;;;5.75;2.25;;;;;4.14;77.99;101746.31;5096116;27;45438;-65
2022/02/25 07:16:48;;;;;;;;;8.50;3.00;;;;;4.17;77.81;101745.47;5096616;27;45388;-68
2022/02/25 07:19:14;;;;;;;;;3.50;2.00;;;;;4.19;77.82;101742.00;5097803;27;45365;-64
2022/02/25 07:21:39;;;;;;;;;5.75;2.75;;;;;4.22;77.08;101739.41;5096232;27;45368;-66
2022/02/25 07:24:05;;;;;;;;;4.75;1.25;;;;;4.24;77.46;101739.44;5109306;27;45502;-67
2022/02/25 07:26:30;;;;;;;;;13.00;4.25;;;;;4.27;77.34;101738.59;5102007;27;45393;-66
2022/02/25 07:28:56;;;;;;;;;3.25;2.00;;;;;4.26;77.51;101739.47;5096047;27;45727;-66
2022/02/25 07:31:21;;;;;;;;;5.50;2.50;;;;;4.29;77.63;101750.75;5104289;27;45461;-67
2022/02/25 07:33:47;;;;;;;;;7.25;3.00;;;;;4.32;77.32;101740.34;5114824;27;47142;-66
2022/02/25 07:36:12;;;;;;;;;1.75;1.25;;;;;4.35;76.98;101742.09;5116463;27;45300;-66
2022/02/25 07:38:38;;;;;;;;;2.50;2.00;;;;;4.35;76.58;101739.50;5114607;27;45789;-68
2022/02/25 07:41:03;;;;;;;;;2.25;1.50;;;;;4.37;76.26;101724.75;5100195;27;45621;-68
2022/02/25 07:43:29;;;;;;;;;3.00;2.00;;;;;4.38;76.69;101735.16;5100750;27;46179;-67
2022/02/25 07:45:54;;;;;;;;;8.00;3.00;;;;;4.42;76.75;101732.56;5112739;27;45415;-63
2022/02/25 07:48:20;;;;;;;;;4.25;2.00;;;;;4.51;77.04;101738.69;5112359;27;45357;-64
2022/02/25 07:50:47;;;;;;;;;5.00;2.75;;;;;4.63;76.80;101750.03;5107181;27;45558;-64
2022/02/25 07:53:13;;;;;;;;;6.00;3.00;;;;;4.70;76.30;101756.13;5099279;27;46387;-66
2022/02/25 07:55:39;;;;;;;;;8.25;3.75;;;;;4.72;76.63;101754.38;5095724;27;45372;-63
2022/02/25 07:58:05;;;;;;;;;2.50;2.00;;;;;4.78;75.88;101760.50;5096607;27;45605;-66
2022/02/25 08:00:31;;;;;;;;;4.25;3.50;;;;;4.81;75.96;101765.72;5095714;27;45324;-65
2022/02/25 08:02:58;;;;;;;;;5.00;2.00;;;;;4.92;75.75;101768.38;5095381;27;45510;-66
2022/02/25 08:05:24;;;;;;;;;7.00;2.00;;;;;5.07;74.96;101779.69;5095527;27;45390;-65
2022/02/25 08:07:50;;;;;;;;;4.00;2.25;;;;;5.15;74.59;101769.25;5095416;27;45389;-64
2022/02/25 08:10:16;;;;;;;;;7.75;4.25;;;;;5.15;74.04;101769.25;5096006;27;45271;-66
2022/02/25 08:12:42;;;;;;;;;4.75;3.00;;;;;5.17;74.34;101777.97;5095394;27;46243;-67
2022/02/25 08:15:10;;;;;;;;;6.00;2.00;;;;;5.17;73.98;101785.78;5095787;27;45308;-67
2022/02/25 08:17:36;;;;;;;;;4.25;2.00;;;;;5.20;73.38;101791.00;5094258;27;45457;-66
2022/02/25 08:20:04;;;;;;;;;3.00;3.00;;;;;5.18;73.14;101791.03;5095328;27;45559;-67
2022/02/25 08:22:29;;;;;;;;;5.25;5.00;;;;;5.19;73.72;101787.53;5094908;27;45403;-68
2022/02/25 08:24:54;;;;;;;;;4.00;3.75;;;;;5.22;73.64;101797.09;5094837;27;45266;-66
2022/02/25 08:27:20;;;;;;;;;3.25;2.50;;;;;5.25;73.40;101804.94;5095267;27;45501;-66
2022/02/25 08:29:45;;;;;;;;;3.25;2.00;;;;;5.28;72.31;101793.63;5095615;27;45532;-66
2022/02/25 08:32:11;;;;;;;;;3.75;2.75;;;;;5.30;72.68;101800.63;5094955;27;47068;-66
2022/02/25 08:34:37;;;;;;;;;6.75;3.00;;;;;5.36;73.20;101805.84;5095180;27;45382;-67
2022/02/25 08:37:03;;;;;;;;;3.00;1.50;;;;;5.48;73.04;101798.88;5095129;27;45253;-66
2022/02/25 08:39:28;;;;;;;;;5.25;2.50;;;;;5.57;72.06;101798.91;5095303;27;45400;-66
2022/02/25 08:41:54;;;;;;;;;3.00;3.00;;;;;5.58;71.36;101810.19;5093512;27;45786;-65
2022/02/25 08:44:20;;;;;;;;;6.50;3.00;;;;;5.58;72.18;101811.06;5095036;27;45407;-66
2022/02/25 08:46:47;;;;;;;;;6.75;3.50;;;;;5.60;72.36;101811.94;5096952;27;45487;-66
2022/02/25 08:49:12;;;;;;;;;2.00;2.00;;;;;5.56;71.84;101800.63;5098861;27;45494;-67
2022/02/25 08:51:38;;;;;;;;;4.00;1.25;;;;;5.63;71.36;101819.78;5097068;27;47582;-67
2022/02/25 08:54:04;;;;;;;;;4.50;4.00;;;;;5.62;71.88;101820.66;5098599;27;45496;-65
2022/02/25 08:56:29;;;;;;;;;5.00;3.00;;;;;5.66;71.02;101818.88;5098469;27;45410;-64
2022/02/25 08:58:55;;;;;;;;;6.75;4.00;;;;;5.67;72.06;101821.50;5098296;27;45567;-65
2022/02/25 09:01:22;;;;;;;;;3.75;3.00;;;;;5.70;71.53;101834.56;5098444;27;46254;-67
2022/02/25 09:03:48;;;;;;;;;9.50;4.25;;;;;5.77;71.65;101830.19;5098691;27;45443;-65
2022/02/25 09:06:14;;;;;;;;;5.50;2.00;;;;;5.84;71.71;101836.31;5098415;27;45657;-67
2022/02/25 09:08:40;;;;;;;;;5.25;2.75;;;;;5.89;71.09;101831.94;5098536;27;45255;-65
2022/02/25 09:11:05;;;;;;;;;6.75;5.00;;;;;5.93;71.60;101832.84;5079740;27;47682;-66
2022/02/25 09:13:31;;;;;;;;;4.75;4.75;;;;;6.01;71.45;101841.56;5098205;27;45360;-65
2022/02/25 09:15:56;;;;;;;;;7.25;3.50;;;;;6.05;71.34;101851.13;5098129;27;45314;-67
2022/02/25 09:18:21;;;;;;;;;7.00;4.00;;;;;6.06;71.15;101849.38;5098651;27;45586;-67
2022/02/25 09:20:47;;;;;;;;;3.75;3.50;;;;;6.06;70.86;101852.00;5097997;27;45990;-66
2022/02/25 09:23:12;;;;;;;;;4.75;3.75;;;;;6.14;70.95;101856.34;5096702;27;45331;-66
2022/02/25 09:25:38;;;;;;;;;10.00;3.25;;;;;6.19;71.19;101864.16;5098022;27;45432;-67
2022/02/25 09:28:04;;;;;;;;;5.00;2.75;;;;;6.25;71.45;101872.00;5098132;27;45819;-67
2022/02/25 09:30:29;;;;;;;;;6.50;3.00;;;;;6.32;70.60;101867.66;5096503;27;47415;-65
2022/02/25 09:32:55;;;;;;;;;7.25;3.50;;;;;6.38;70.20;101865.03;5096455;27;45339;-65
2022/02/25 09:35:21;;;;;;;;;4.50;2.50;;;;;6.41;70.26;101875.47;5096798;27;45451;-66
2022/02/25 09:37:47;;;;;;;;;5.50;2.00;;;;;6.47;70.52;101873.72;5098067;27;45558;-65
2022/02/25 09:40:15;;;;;;;;;4.25;2.00;;;;;6.53;70.17;101879.81;5096254;27;47218;-67
2022/02/25 09:42:43;;;;;;;;;2.75;2.00;;;;;6.62;69.36;101891.13;5097849;27;45367;-67
2022/02/25 09:45:10;;;;;;;;;5.00;3.00;;;;;6.65;69.46;101886.72;5096392;27;45271;-64
2022/02/25 09:47:36;;;;;;;;;7.25;3.00;;;;;6.70;69.44;101881.50;5097589;27;45682;-67
2022/02/25 09:50:08;;;;;;;;;4.25;2.25;;;;;6.77;69.49;101892.81;5097488;27;46166;-67
2022/02/25 09:52:35;;;;;;;;;5.25;3.75;;;;;6.81;69.22;101892.81;5097794;27;45447;-68
2022/02/25 09:55:05;;;;;;;;;8.00;3.00;;;;;6.86;68.81;101898.88;5098041;27;45396;-67
2022/02/25 09:57:31;;;;;;;;;3.25;2.00;;;;;6.95;68.99;101899.72;5098108;27;45315;-67
2022/02/25 09:59:56;;;;;;;;;7.00;3.25;;;;;6.99;69.52;101906.69;5113477;27;47334;-64
2022/02/25 10:02:38;;;;;;;;;3.00;2.25;;;;;7.02;69.02;101904.06;5098093;27;45478;-67
2022/02/25 10:05:27;;;;;;;;;4.50;4.00;;;;;7.04;69.23;101906.69;5097911;27;45318;-70
2022/02/25 10:07:53;;;;;;;;;8.75;3.75;;;;;7.07;68.18;101897.06;5094469;27;45624;-65
2022/02/25 10:10:25;;;;;;;;;6.75;3.25;;;;;7.13;68.64;101914.50;5097164;27;47150;-67
2022/02/25 10:13:01;;;;;;;;;3.50;3.00;;;;;7.19;68.45;101913.56;5097930;27;45434;-68
2022/02/25 10:15:32;;;;;;;;;5.50;4.25;;;;;7.31;68.52;101931.84;5113262;27;45480;-64
2022/02/25 10:18:03;;;;;;;;;3.75;3.25;;;;;7.39;68.25;101916.09;5097518;27;45375;-66
2022/02/25 10:20:29;;;;;;;;;6.25;3.00;;;;;7.41;67.42;101923.06;5097028;27;45422;-69
2022/02/25 10:22:56;;;;;;;;;7.75;4.00;;;;;7.52;66.51;101925.63;5097183;27;45301;-67
2022/02/25 10:25:24;;;;;;;;;3.00;2.00;;;;;7.60;65.34;101933.44;5097230;27;45486;-65
2022/02/25 10:27:51;;;;;;;;;4.75;2.75;;;;;7.68;66.92;101928.16;5095659;27;45481;-66
2022/02/25 10:30:21;;;;;;;;;6.75;2.50;;;;;7.82;65.02;101922.84;5095554;27;46457;-67
2022/02/25 10:32:50;;;;;;;;;8.25;2.50;;;;;7.97;65.47;101930.56;5096957;27;45837;-67
2022/02/25 10:35:28;;;;;;;;;4.00;3.00;;;;;8.06;64.81;101931.38;5096982;27;45417;-66
2022/02/25 10:38:08;;;;;;;;;4.00;2.75;;;;;8.01;64.38;101926.19;5096863;27;45341;-66
2022/02/25 10:40:37;;;;;;;;;3.25;2.00;;;;;7.98;64.99;101928.84;5077368;27;45926;-64
2022/02/25 10:43:23;;;;;;;;;8.50;3.00;;;;;7.96;65.18;101922.75;5076089;28;45374;-65
2022/02/25 10:45:50;;;;;;;;;5.00;3.00;;;;;7.97;64.98;101925.34;5076413;28;45341;-67
2022/02/25 10:48:18;;;;;;;;;5.75;4.00;;;;;7.98;64.58;101921.84;5076476;27;45570;-66
2022/02/25 10:50:48;;;;;;;;;7.25;4.00;;;;;8.06;64.11;101927.03;5075145;27;47394;-65
2022/02/25 10:53:25;;;;;;;;;8.50;3.00;;;;;8.19;65.22;101935.63;5076097;27;45335;-67
2022/02/25 10:55:50;;;;;;;;;12.00;9.25;;;;;8.29;63.01;101916.31;5075003;28;45224;-67
2022/02/25 10:58:17;;;;;;;;;5.50;5.25;;;;;8.47;63.93;101933.66;5076370;27;45437;-68
2022/02/25 11:00:43;;;;;;;;;4.75;3.00;;;;;8.57;62.31;101934.47;5076272;27;46531;-67
2022/02/25 11:03:17;;;;;;;;;2.75;1.75;;;;;8.59;63.11;101934.44;5076294;27;45472;-69
2022/02/25 11:05:45;;;;;;;;;6.00;4.25;;;;;8.59;62.29;101930.06;5076285;27;45264;-66
2022/02/25 11:08:11;;;;;;;;;8.00;6.00;;;;;8.71;63.53;101930.84;5074269;27;45304;-67
2022/02/25 11:10:37;;;;;;;;;6.25;4.00;;;;;8.91;63.54;101941.97;5075747;27;46065;-67
2022/02/25 11:13:05;;;;;;;;;4.00;4.00;;;;;9.08;62.88;101933.03;5075780;27;45534;-66
2022/02/25 11:15:34;;;;;;;;;9.25;5.75;;;;;9.20;61.09;101945.16;5074688;27;45407;-67
2022/02/25 11:18:00;;;;;;;;;9.50;4.00;;;;;9.30;61.12;101949.41;5076316;27;45237;-66
2022/02/25 11:20:31;;;;;;;;;7.00;4.75;;;;;9.33;61.93;101958.97;5076008;27;45412;-67
2022/02/25 11:23:08;;;;;;;;;10.25;6.00;;;;;9.24;61.41;101954.72;5076191;27;45182;-67
2022/02/25 11:25:35;;;;;;;;;5.00;5.00;;;;;9.06;61.06;101937.44;5075847;28;45227;-67
2022/02/25 11:28:02;;;;;;;;;4.75;2.25;;;;;8.93;59.66;101951.59;5075861;27;45316;-69
2022/02/25 11:30:55;;;;;;;;;8.75;3.75;;;;;8.74;61.50;101943.91;5074978;28;45428;-67
2022/02/25 11:33:25;;;;;;;;;6.00;4.00;;;;;8.75;60.90;101941.25;5076278;28;45410;-66
2022/02/25 11:35:55;;;;;;;;;5.00;3.00;;;;;8.84;61.44;101956.06;5076125;27;45346;-68
2022/02/25 11:38:28;;;;;;;;;6.25;3.00;;;;;9.10;60.67;101952.25;5075910;27;45662;-66
2022/02/25 11:41:05;;;;;;;;;5.00;4.00;;;;;9.43;60.62;101950.06;5075411;28;46085;-68